createdAt,value
2023-02-28T00:01:28.287Z,99.90
2023-02-28T00:03:56.020Z,99.90
2023-02-28T00:06:23.736Z,99.90
2023-02-28T00:08:51.613Z,99.90
2023-02-28T00:11:18.813Z,99.90
2023-02-28T00:13:47.989Z,99.90
2023-02-28T00:16:21.533Z,99.90
2023-02-28T00:18:49.736Z,99.90
2023-02-28T00:21:18.864Z,99.90
2023-02-28T00:23:46.765Z,99.90
2023-02-28T00:26:13.952Z,99.90
2023-02-28T00:28:45.771Z,99.90
2023-02-28T00:31:13.087Z,99.90
2023-02-28T00:33:40.511Z,99.90
2023-02-28T00:36:10.717Z,99.90
2023-02-28T00:38:39.148Z,99.90
2023-02-28T00:41:06.979Z,99.90
2023-02-28T00:43:39.730Z,99.90
2023-02-28T00:46:10.051Z,99.90
2023-02-28T00:48:37.743Z,99.90
2023-02-28T00:51:05.378Z,99.90
2023-02-28T00:53:33.848Z,99.90
2023-02-28T00:56:01.700Z,99.90
2023-02-28T00:58:29.151Z,99.90
2023-02-28T01:00:56.429Z,99.90
2023-02-28T01:03:24.360Z,99.90
2023-02-28T01:05:52.034Z,99.90
2023-02-28T01:08:19.554Z,99.90
2023-02-28T01:10:46.921Z,99.90
2023-02-28T01:13:15.152Z,99.90
2023-02-28T01:15:49.967Z,99.90
2023-02-28T01:18:17.614Z,99.90
2023-02-28T01:20:45.484Z,99.90
2023-02-28T01:23:13.335Z,99.90
2023-02-28T01:25:40.958Z,99.90
2023-02-28T01:28:08.451Z,99.90
2023-02-28T01:30:36.161Z,99.90
2023-02-28T01:33:03.918Z,99.90
2023-02-28T01:35:34.794Z,99.90
2023-02-28T01:38:20.620Z,99.90
2023-02-28T01:40:48.634Z,99.90
2023-02-28T01:43:45.297Z,99.90
2023-02-28T01:46:14.387Z,99.90
2023-02-28T01:48:51.462Z,99.90
2023-02-28T01:51:51.892Z,99.90
2023-02-28T01:54:30.473Z,99.90
2023-02-28T01:57:01.747Z,99.90
2023-02-28T01:59:47.290Z,99.90
2023-02-28T02:02:15.983Z,99.90
2023-02-28T02:04:59.771Z,99.90
2023-02-28T02:07:28.192Z,99.90
2023-02-28T02:10:27.676Z,99.90
2023-02-28T02:13:11.721Z,99.90
2023-02-28T02:15:50.401Z,99.90
2023-02-28T02:18:25.160Z,99.90
2023-02-28T02:21:22.082Z,99.90
2023-02-28T02:24:10.651Z,99.90
2023-02-28T02:27:04.438Z,99.90
2023-02-28T02:29:47.095Z,99.90
2023-02-28T02:32:19.909Z,99.90
2023-02-28T02:34:51.702Z,99.90
2023-02-28T02:37:45.553Z,99.90
2023-02-28T02:40:15.937Z,99.90
2023-02-28T02:42:54.023Z,99.90
2023-02-28T02:45:46.973Z,99.90
2023-02-28T02:48:20.758Z,99.90
2023-02-28T02:50:57.243Z,99.90
2023-02-28T02:53:51.025Z,99.90
2023-02-28T02:56:25.996Z,99.90
2023-02-28T02:58:57.932Z,99.90
2023-02-28T03:01:30.278Z,99.90
2023-02-28T03:04:08.852Z,99.90
2023-02-28T03:06:36.472Z,99.90
2023-02-28T03:09:05.490Z,99.90
2023-02-28T03:11:33.497Z,99.90
2023-02-28T03:14:11.732Z,99.90
2023-02-28T03:16:58.091Z,99.90
2023-02-28T03:19:32.346Z,99.90
2023-02-28T03:22:34.991Z,99.90
2023-02-28T03:25:19.912Z,99.90
2023-02-28T03:28:03.080Z,99.90
2023-02-28T03:30:43.731Z,99.90
2023-02-28T03:33:21.908Z,99.90
2023-02-28T03:36:00.359Z,99.90
2023-02-28T03:38:51.017Z,99.90
2023-02-28T03:41:22.246Z,99.90
2023-02-28T03:44:01.854Z,99.90
2023-02-28T03:46:35.694Z,99.90
2023-02-28T03:49:17.300Z,99.90
2023-02-28T03:51:48.341Z,99.90
2023-02-28T03:54:21.786Z,99.90
2023-02-28T03:57:09.516Z,99.90
2023-02-28T03:59:42.917Z,99.90
2023-02-28T04:02:10.706Z,99.90
2023-02-28T04:04:38.091Z,99.90
2023-02-28T04:07:09.734Z,99.90
2023-02-28T04:09:37.124Z,99.90
2023-02-28T04:12:04.912Z,99.90
2023-02-28T04:14:32.028Z,99.90
2023-02-28T04:16:59.659Z,99.90
2023-02-28T04:19:26.733Z,99.90
2023-02-28T04:21:55.137Z,99.90
2023-02-28T04:24:28.403Z,99.90
2023-02-28T04:26:57.980Z,99.90
2023-02-28T04:29:31.643Z,99.90
2023-02-28T04:32:00.526Z,99.90
2023-02-28T04:34:29.209Z,99.90
2023-02-28T04:37:12.055Z,99.90
2023-02-28T04:39:40.803Z,99.90
2023-02-28T04:42:08.370Z,99.90
2023-02-28T04:44:35.731Z,99.90
2023-02-28T04:47:03.298Z,99.90
2023-02-28T04:49:30.731Z,99.90
2023-02-28T04:51:58.580Z,99.90
2023-02-28T04:54:25.863Z,99.90
2023-02-28T04:56:53.423Z,99.90
2023-02-28T04:59:20.594Z,99.90
2023-02-28T05:01:50.105Z,99.90
2023-02-28T05:04:17.557Z,99.90
2023-02-28T05:06:45.330Z,99.90
2023-02-28T05:09:15.434Z,99.90
2023-02-28T05:11:42.978Z,99.90
2023-02-28T05:14:15.056Z,99.90
2023-02-28T05:16:43.407Z,99.90
2023-02-28T05:19:10.596Z,99.90
2023-02-28T05:21:41.663Z,99.90
2023-02-28T05:24:13.083Z,99.90
2023-02-28T05:26:44.285Z,99.90
2023-02-28T05:29:11.768Z,99.90
2023-02-28T05:31:39.539Z,99.90
2023-02-28T05:34:07.193Z,99.90
2023-02-28T05:36:34.819Z,99.90
2023-02-28T05:39:02.135Z,99.90
2023-02-28T05:41:30.063Z,99.90
2023-02-28T05:43:59.033Z,99.90
2023-02-28T05:46:26.508Z,99.90
2023-02-28T05:48:53.784Z,99.90
2023-02-28T05:51:21.261Z,99.90
2023-02-28T05:53:50.229Z,99.90
2023-02-28T05:56:17.739Z,99.90
2023-02-28T05:58:44.951Z,99.90
2023-02-28T06:01:43.375Z,99.90
2023-02-28T06:04:22.378Z,99.90
2023-02-28T06:06:58.602Z,99.90
2023-02-28T06:09:26.104Z,99.90
2023-02-28T06:11:53.520Z,99.90
2023-02-28T06:14:21.883Z,99.90
2023-02-28T06:16:49.457Z,99.90
2023-02-28T06:19:16.766Z,99.90
2023-02-28T06:21:44.780Z,99.90
2023-02-28T06:24:12.421Z,99.90
2023-02-28T06:26:40.185Z,99.90
2023-02-28T06:29:08.338Z,99.90
2023-02-28T06:31:35.878Z,99.90
2023-02-28T06:34:03.390Z,99.90
2023-02-28T06:36:31.388Z,99.90
2023-02-28T06:38:58.808Z,99.90
2023-02-28T06:41:27.675Z,99.90
2023-02-28T06:43:55.547Z,99.90
2023-02-28T06:46:23.300Z,99.90
2023-02-28T06:48:50.884Z,99.90
2023-02-28T06:51:25.366Z,99.90
2023-02-28T06:53:52.830Z,99.90
2023-02-28T06:56:21.622Z,99.90
2023-02-28T06:58:50.344Z,99.90
2023-02-28T07:01:18.876Z,99.90
2023-02-28T07:03:46.702Z,99.90
2023-02-28T07:06:14.286Z,99.90
2023-02-28T07:08:42.163Z,99.90
2023-02-28T07:11:10.156Z,99.90
2023-02-28T07:13:37.654Z,99.90
2023-02-28T07:16:07.563Z,99.90
2023-02-28T07:18:34.901Z,99.90
2023-02-28T07:21:07.693Z,99.90
2023-02-28T07:23:35.365Z,99.90
2023-02-28T07:26:03.171Z,99.90
2023-02-28T07:28:30.361Z,99.90
2023-02-28T07:30:57.924Z,99.90
2023-02-28T07:33:25.229Z,99.90
2023-02-28T07:35:52.735Z,99.90
2023-02-28T07:38:19.912Z,99.90
2023-02-28T07:40:47.350Z,99.90
2023-02-28T07:43:14.474Z,99.90
2023-02-28T07:45:41.980Z,99.90
2023-02-28T07:48:11.179Z,99.90
2023-02-28T07:50:38.952Z,99.90
2023-02-28T07:53:06.152Z,99.90
2023-02-28T07:55:33.645Z,99.90
2023-02-28T07:58:00.801Z,99.90
2023-02-28T08:00:30.052Z,99.90
2023-02-28T08:02:57.299Z,99.90
2023-02-28T08:05:24.770Z,99.90
2023-02-28T08:07:51.915Z,99.90
2023-02-28T08:10:19.686Z,99.90
2023-02-28T08:12:46.814Z,99.90
2023-02-28T08:15:14.592Z,99.90
2023-02-28T08:17:41.905Z,99.90
2023-02-28T08:20:10.313Z,99.90
2023-02-28T08:22:37.539Z,99.90
2023-02-28T08:25:05.611Z,99.90
2023-02-28T08:27:32.814Z,99.90
2023-02-28T08:30:00.201Z,99.90
2023-02-28T08:32:30.183Z,99.90
2023-02-28T08:34:58.402Z,99.90
2023-02-28T08:37:26.234Z,99.90
2023-02-28T08:39:56.219Z,99.90
2023-02-28T08:42:24.949Z,99.90
2023-02-28T08:44:52.417Z,99.90
2023-02-28T08:47:20.097Z,99.90
2023-02-28T08:49:47.701Z,99.90
2023-02-28T08:52:14.984Z,99.90
2023-02-28T08:54:42.471Z,99.90
2023-02-28T08:57:10.003Z,99.90
2023-02-28T08:59:37.612Z,99.90
2023-02-28T09:02:04.839Z,99.90
2023-02-28T09:04:32.302Z,99.90
2023-02-28T09:06:59.485Z,99.90
2023-02-28T09:09:26.991Z,99.90
2023-02-28T09:11:57.174Z,99.90
2023-02-28T09:14:24.917Z,99.90
2023-02-28T09:16:52.173Z,99.90
2023-02-28T09:19:19.249Z,99.90
2023-02-28T09:21:46.682Z,99.90
2023-02-28T09:24:16.146Z,99.90
2023-02-28T09:26:56.527Z,99.90
2023-02-28T09:29:31.774Z,99.90
2023-02-28T09:31:59.769Z,99.90
2023-02-28T09:34:28.539Z,99.90
2023-02-28T09:36:56.326Z,99.90
2023-02-28T09:39:24.333Z,99.90
2023-02-28T09:41:54.743Z,99.90
2023-02-28T09:44:38.570Z,99.90
2023-02-28T09:47:29.159Z,99.90
2023-02-28T09:50:00.693Z,99.90
2023-02-28T09:52:32.591Z,99.90
2023-02-28T09:55:23.425Z,99.90
2023-02-28T09:57:53.084Z,99.90
2023-02-28T10:00:25.706Z,99.90
2023-02-28T10:02:59.231Z,99.90
2023-02-28T10:05:33.319Z,99.90
2023-02-28T10:08:11.433Z,99.90
2023-02-28T10:10:49.426Z,99.90
2023-02-28T10:13:55.477Z,99.90
2023-02-28T10:16:28.879Z,99.90
2023-02-28T10:19:14.338Z,99.90
2023-02-28T10:21:50.871Z,99.90
2023-02-28T10:24:29.445Z,99.90
2023-02-28T10:27:02.716Z,99.90
2023-02-28T10:29:34.017Z,99.90
2023-02-28T10:32:03.895Z,99.90
2023-02-28T10:34:31.403Z,99.90
2023-02-28T10:37:10.818Z,99.90
2023-02-28T10:39:47.533Z,95.20
2023-02-28T10:42:27.351Z,95.00
2023-02-28T10:45:11.988Z,96.60
2023-02-28T10:47:59.130Z,96.30
2023-02-28T10:50:39.133Z,95.70
2023-02-28T10:53:24.778Z,98.70
2023-02-28T10:56:07.767Z,94.30
2023-02-28T10:59:09.141Z,93.40
2023-02-28T11:01:43.656Z,89.40
2023-02-28T11:04:33.715Z,90.30
2023-02-28T11:07:05.934Z,86.60
2023-02-28T11:09:39.914Z,86.00
2023-02-28T11:12:20.322Z,85.50
2023-02-28T11:14:58.126Z,85.40
2023-02-28T11:17:29.146Z,86.10
2023-02-28T11:20:08.102Z,85.80
2023-02-28T11:22:40.047Z,84.30
2023-02-28T11:25:27.002Z,86.60
2023-02-28T11:28:02.517Z,84.80
2023-02-28T11:30:31.940Z,86.00
2023-02-28T11:32:59.658Z,84.60
2023-02-28T11:35:40.152Z,87.30
2023-02-28T11:38:14.074Z,81.00
2023-02-28T11:40:58.458Z,82.70
2023-02-28T11:44:06.223Z,80.90
2023-02-28T11:46:34.618Z,82.80
2023-02-28T11:49:28.132Z,85.80
2023-02-28T11:52:23.170Z,82.90
2023-02-28T11:55:29.949Z,83.60
2023-02-28T11:58:18.859Z,77.10
2023-02-28T12:01:04.810Z,79.10
2023-02-28T12:03:57.347Z,76.60
2023-02-28T12:06:48.550Z,75.90
2023-02-28T12:09:44.424Z,75.50
2023-02-28T12:12:14.995Z,78.40
2023-02-28T12:14:59.584Z,77.10
2023-02-28T12:17:39.151Z,74.40
2023-02-28T12:20:28.390Z,73.90
2023-02-28T12:23:26.899Z,74.40
2023-02-28T12:26:24.623Z,72.10
2023-02-28T12:28:54.425Z,73.90
2023-02-28T12:31:25.502Z,73.60
2023-02-28T12:33:57.828Z,74.60
2023-02-28T12:36:27.265Z,76.00
2023-02-28T12:39:06.779Z,78.10
2023-02-28T12:42:03.660Z,76.10
2023-02-28T12:44:46.081Z,74.40
2023-02-28T12:47:19.067Z,75.50
2023-02-28T12:50:02.881Z,77.30
2023-02-28T12:53:01.714Z,74.40
2023-02-28T12:55:50.548Z,74.90
2023-02-28T12:58:26.588Z,73.80
2023-02-28T13:01:05.946Z,75.80
2023-02-28T13:03:51.897Z,75.70
2023-02-28T13:06:50.392Z,77.80
2023-02-28T13:09:18.782Z,78.00
2023-02-28T13:11:52.174Z,77.10
2023-02-28T13:14:25.018Z,77.60
2023-02-28T13:17:03.595Z,75.90
2023-02-28T13:19:34.536Z,74.90
2023-02-28T13:22:03.341Z,75.50
2023-02-28T13:24:43.842Z,76.70
2023-02-28T13:27:12.963Z,75.80
2023-02-28T13:29:43.422Z,75.60
2023-02-28T13:32:10.925Z,76.50
2023-02-28T13:34:40.667Z,74.50
2023-02-28T13:37:23.277Z,76.30
2023-02-28T13:39:51.606Z,76.50
2023-02-28T13:42:28.061Z,75.10
2023-02-28T13:45:04.382Z,77.50
2023-02-28T13:47:34.934Z,76.80
2023-02-28T13:50:26.700Z,75.70
2023-02-28T13:53:15.532Z,76.30
2023-02-28T13:56:07.983Z,75.20
2023-02-28T13:59:16.862Z,74.60
2023-02-28T14:02:02.767Z,78.00
2023-02-28T14:05:11.742Z,76.70
2023-02-28T14:07:48.260Z,75.60
2023-02-28T14:10:49.141Z,71.40
2023-02-28T14:13:46.064Z,71.10
2023-02-28T14:16:27.745Z,70.60
2023-02-28T14:19:02.994Z,66.90
2023-02-28T14:21:39.361Z,64.90
2023-02-28T14:24:21.466Z,64.40
2023-02-28T14:26:57.786Z,61.10
2023-02-28T14:29:36.211Z,59.20
2023-02-28T14:32:32.748Z,60.40
2023-02-28T14:35:41.073Z,60.20
2023-02-28T14:38:15.141Z,58.70
2023-02-28T14:40:42.492Z,59.30
2023-02-28T14:43:27.724Z,60.90
2023-02-28T14:46:07.291Z,61.00
2023-02-28T14:48:36.206Z,62.90
2023-02-28T14:51:03.403Z,63.60
2023-02-28T14:53:37.289Z,63.30
2023-02-28T14:56:04.869Z,63.20
2023-02-28T14:58:34.759Z,64.20
2023-02-28T15:01:04.494Z,64.50
2023-02-28T15:03:33.937Z,64.90
2023-02-28T15:06:06.490Z,65.40
2023-02-28T15:08:37.316Z,65.60
2023-02-28T15:11:20.301Z,65.70
2023-02-28T15:13:51.187Z,65.70
2023-02-28T15:16:38.466Z,66.20
2023-02-28T15:19:15.301Z,67.10
2023-02-28T15:21:46.045Z,67.50
2023-02-28T15:24:43.365Z,67.30
2023-02-28T15:27:22.158Z,67.90
2023-02-28T15:29:54.635Z,68.40
2023-02-28T15:32:32.457Z,68.70
2023-02-28T15:35:19.370Z,69.40
2023-02-28T15:37:49.324Z,69.20
2023-02-28T15:40:38.008Z,69.60
2023-02-28T15:43:15.104Z,70.00
2023-02-28T15:46:00.855Z,70.40
2023-02-28T15:48:33.299Z,71.00
2023-02-28T15:51:37.428Z,71.50
2023-02-28T15:54:08.928Z,72.10
2023-02-28T15:56:56.340Z,72.70
2023-02-28T15:59:29.877Z,73.20
2023-02-28T16:02:15.740Z,73.60
2023-02-28T16:05:08.543Z,74.20
2023-02-28T16:07:38.176Z,74.70
2023-02-28T16:10:07.107Z,75.20
2023-02-28T16:12:37.981Z,75.80
2023-02-28T16:15:29.961Z,76.40
2023-02-28T16:17:58.312Z,77.10
2023-02-28T16:20:30.587Z,77.50
2023-02-28T16:23:02.335Z,78.40
2023-02-28T16:25:41.239Z,79.10
2023-02-28T16:28:22.958Z,80.10
2023-02-28T16:30:53.183Z,80.60
2023-02-28T16:33:20.672Z,81.10
2023-02-28T16:35:48.008Z,81.60
2023-02-28T16:38:15.492Z,82.20
2023-02-28T16:40:43.015Z,83.00
2023-02-28T16:43:18.207Z,83.80
2023-02-28T16:45:45.636Z,84.90
2023-02-28T16:48:16.480Z,85.60
2023-02-28T16:50:46.250Z,86.60
2023-02-28T16:53:14.614Z,88.10
2023-02-28T16:55:42.606Z,89.00
2023-02-28T16:58:16.238Z,89.90
2023-02-28T17:00:44.520Z,90.30
2023-02-28T17:03:32.600Z,91.00
2023-02-28T17:06:00.648Z,92.30
2023-02-28T17:08:30.416Z,92.80
2023-02-28T17:10:57.684Z,93.00
2023-02-28T17:13:25.291Z,93.50
2023-02-28T17:15:52.614Z,94.20
2023-02-28T17:18:22.218Z,94.70
2023-02-28T17:20:50.384Z,94.80
2023-02-28T17:23:18.178Z,95.70
2023-02-28T17:25:56.315Z,95.50
2023-02-28T17:28:25.230Z,95.90
2023-02-28T17:30:52.416Z,96.50
2023-02-28T17:33:20.075Z,96.50
2023-02-28T17:35:47.388Z,97.10
2023-02-28T17:38:18.519Z,97.70
2023-02-28T17:40:46.427Z,98.30
2023-02-28T17:43:13.980Z,98.50
2023-02-28T17:45:42.062Z,98.40
2023-02-28T17:48:12.622Z,98.70
2023-02-28T17:50:39.935Z,98.80
2023-02-28T17:53:07.525Z,98.70
2023-02-28T17:55:35.500Z,99.00
2023-02-28T17:58:04.769Z,99.90
2023-02-28T18:00:34.515Z,99.90
2023-02-28T18:03:02.184Z,99.90
2023-02-28T18:05:29.411Z,99.90
2023-02-28T18:07:57.606Z,99.90
2023-02-28T18:10:25.053Z,99.90
2023-02-28T18:12:53.245Z,99.90
2023-02-28T18:15:22.264Z,99.90
2023-02-28T18:17:50.657Z,99.90
2023-02-28T18:20:18.528Z,99.90
2023-02-28T18:22:46.225Z,99.90
2023-02-28T18:25:18.000Z,99.90
2023-02-28T18:27:59.036Z,99.90
2023-02-28T18:30:32.128Z,99.90
2023-02-28T18:33:00.684Z,99.90
2023-02-28T18:35:37.716Z,99.90
2023-02-28T18:38:19.955Z,99.90
2023-02-28T18:41:00.107Z,99.90
2023-02-28T18:43:32.780Z,99.90
2023-02-28T18:46:05.420Z,99.90
2023-02-28T18:48:33.792Z,99.90
2023-02-28T18:51:11.364Z,99.90
2023-02-28T18:53:40.229Z,99.90
2023-02-28T18:56:09.260Z,99.90
2023-02-28T18:58:36.997Z,99.90
2023-02-28T19:01:12.909Z,99.90
2023-02-28T19:03:40.516Z,99.90
2023-02-28T19:06:07.860Z,99.90
2023-02-28T19:08:35.379Z,99.90
2023-02-28T19:11:14.704Z,99.90
2023-02-28T19:13:43.431Z,99.90
2023-02-28T19:16:12.303Z,99.90
2023-02-28T19:18:40.703Z,99.90
2023-02-28T19:21:12.847Z,99.90
2023-02-28T19:23:41.207Z,99.90
2023-02-28T19:26:17.899Z,99.90
2023-02-28T19:28:48.856Z,99.90
2023-02-28T19:31:24.559Z,99.90
2023-02-28T19:33:57.263Z,99.90
2023-02-28T19:36:25.541Z,99.90
2023-02-28T19:38:52.950Z,99.90
2023-02-28T19:41:20.642Z,99.90
2023-02-28T19:43:48.191Z,99.90
2023-02-28T19:46:15.603Z,99.90
2023-02-28T19:48:44.905Z,99.90
2023-02-28T19:51:14.241Z,99.90
2023-02-28T19:53:43.180Z,99.90
2023-02-28T19:56:10.837Z,99.90
2023-02-28T19:58:38.653Z,99.90
2023-02-28T20:01:17.563Z,99.90
2023-02-28T20:03:49.066Z,99.90
2023-02-28T20:06:16.424Z,99.90
2023-02-28T20:08:43.915Z,99.90
2023-02-28T20:11:13.699Z,99.90
2023-02-28T20:13:41.241Z,99.90
2023-02-28T20:16:10.221Z,99.90
2023-02-28T20:18:39.088Z,99.90
2023-02-28T20:21:08.879Z,99.90
2023-02-28T20:23:38.858Z,99.90
2023-02-28T20:26:06.435Z,99.90
2023-02-28T20:28:34.230Z,99.90
2023-02-28T20:31:01.521Z,99.90
2023-02-28T20:33:29.249Z,99.90
2023-02-28T20:36:05.415Z,99.90
2023-02-28T20:38:33.319Z,99.90
2023-02-28T20:41:02.026Z,99.90
2023-02-28T20:43:30.277Z,99.90
2023-02-28T20:45:59.093Z,99.90
2023-02-28T20:48:26.525Z,99.90
2023-02-28T20:50:55.844Z,99.90
2023-02-28T20:53:25.469Z,99.90
2023-02-28T20:55:56.863Z,99.90
2023-02-28T20:58:26.629Z,99.90
2023-02-28T21:01:26.053Z,99.90
2023-02-28T21:04:00.021Z,99.90
2023-02-28T21:06:30.611Z,99.90
2023-02-28T21:08:58.962Z,99.90
2023-02-28T21:11:29.601Z,99.90
2023-02-28T21:14:00.509Z,99.90
2023-02-28T21:16:29.775Z,99.90
2023-02-28T21:19:03.752Z,99.90
2023-02-28T21:21:46.748Z,99.90
2023-02-28T21:24:16.778Z,99.90
2023-02-28T21:26:45.404Z,99.90
2023-02-28T21:29:13.731Z,99.90
2023-02-28T21:31:41.136Z,99.90
2023-02-28T21:34:11.036Z,99.90
2023-02-28T21:36:40.686Z,99.90
2023-02-28T21:39:30.179Z,99.90
2023-02-28T21:42:04.053Z,99.90
2023-02-28T21:44:34.421Z,99.90
2023-02-28T21:47:02.143Z,99.90
2023-02-28T21:49:30.343Z,99.90
2023-02-28T21:51:57.556Z,99.90
2023-02-28T21:54:25.647Z,99.90
2023-02-28T21:56:53.194Z,99.90
2023-02-28T21:59:20.869Z,99.90
2023-02-28T22:01:55.267Z,99.90
2023-02-28T22:04:23.725Z,99.90
2023-02-28T22:06:53.871Z,99.90
2023-02-28T22:09:21.785Z,99.90
2023-02-28T22:11:49.167Z,99.90
2023-02-28T22:14:16.848Z,99.90
2023-02-28T22:16:51.728Z,99.90
2023-02-28T22:19:21.142Z,99.90
2023-02-28T22:21:48.824Z,99.90
2023-02-28T22:24:18.070Z,99.90
2023-02-28T22:26:45.353Z,99.90
2023-02-28T22:29:12.987Z,99.90
2023-02-28T22:31:40.153Z,99.90
2023-02-28T22:34:11.245Z,99.90
2023-02-28T22:36:41.580Z,99.90
2023-02-28T22:39:09.879Z,99.90
2023-02-28T22:41:37.191Z,99.90
2023-02-28T22:44:05.150Z,99.90
2023-02-28T22:46:34.191Z,99.90
2023-02-28T22:49:04.371Z,99.90
2023-02-28T22:51:31.764Z,99.90
2023-02-28T22:53:59.344Z,99.90
2023-02-28T22:56:28.783Z,99.90
2023-02-28T22:58:58.471Z,99.90
2023-02-28T23:01:28.792Z,99.90
2023-02-28T23:03:57.012Z,99.90
2023-02-28T23:06:31.067Z,99.90
2023-02-28T23:09:01.888Z,99.90
2023-02-28T23:11:32.106Z,99.90
2023-02-28T23:14:00.040Z,99.90
2023-02-28T23:16:29.835Z,99.90
2023-02-28T23:18:59.396Z,99.90
2023-02-28T23:21:27.218Z,99.90
2023-02-28T23:23:54.984Z,99.90
2023-02-28T23:26:22.844Z,99.90
2023-02-28T23:28:50.367Z,99.90
2023-02-28T23:31:17.678Z,99.90
2023-02-28T23:33:45.156Z,99.90
2023-02-28T23:36:15.472Z,99.90
2023-02-28T23:38:47.496Z,99.90
2023-02-28T23:41:15.646Z,99.90
2023-02-28T23:43:43.856Z,99.90
2023-02-28T23:46:12.378Z,99.90
2023-02-28T23:48:40.773Z,99.90
2023-02-28T23:51:11.354Z,99.90
2023-02-28T23:53:41.259Z,99.90
2023-02-28T23:56:10.474Z,99.90
2023-02-28T23:58:37.931Z,99.90
